Terminal Aerodrome Forecast
Issued by NWS

Home | Current Version | Previous Version | Text Only | Print | Product List | Glossary On
Versions: 1 2 3 4 5 6 7 8 9 10 11 12 13 14 15 16 17 18 19 20 21 22 23 24 25 26 27 28 29 30 31
000
FTUS44 KOUN 181730
TAFCSM
TAF
KCSM 181730Z 1818/1918 21010KT P6SM FEW250
     FM190200 18010KT 4SM BR SCT003
     FM190400 21006KT 3/4SM BR VV002
     FM191600 21008KT P6SM FEW004 SCT120=

USA.gov is the U.S. government's official web portal to all federal, state and local government web resources and services.